Decoded Metar for RCTP (TAIPEI in TAIWAN) (IATA:TPE) | Meteo·Mobile Aviation Weather
aviador You're here:

RCTP Decoded Metar

TAIPEI in TAIWAN
Report Time2019-01-17 23:00:00
UTC Time2019-01-17 23:24:29
Flight Rules vfr VFR
Wind060° at 19 kt
W.Decomp.*RWY 05: 18.4 kt HW 4.6 kt RCW
W.Rank060° ranks 3
Current wind is above 060° avg. (13.3)
Visibility9999 m
Phenomena:N/A
Clouds:Few 012 Hf
Expected CloudBase > 2,800 ft AGL from Temp-Dew spread
CeilingNone
Temp15°C (ISA 0)
Dew Point08°C (63% RH)
AAT7.7°C
QNH1023 hPa
Density Alt-59 ft
Elevation108 ft
Report Wrong Elevation
Raw Report
RCTP 172300Z 06019KT 9999 FEW012 15/08 Q1023 NOSIG RMK A3022=

Extra information for RCTP:More info

Metar Taf Metar & Taf Last 4 Metars F.Rules Stats Wind Profile Meteogram Temp Stats Airport Information Weather charts Add Link Nearby VenuesMetar ALERT Operation Metar Decoded Social comments